Terminal Aerodrome Forecast
Issued by NWS Mt. Holly, NJ

Home | Current Version | Previous Version | Text Only | Print | Product List | Glossary On
Versions: 1 2 3 4 5 6 7 8 9 10 11 12 13 14 15 16 17 18 19 20 21 22 23 24 25 26 27 28 29 30 31
000
FTUS41 KPHI 251123
TAFACY
TAF
KACY 251123Z 2512/2612 18008KT 6SM BR SCT004 BKN045
      TEMPO 2512/2513 BKN004 OVC045
     FM251300 22010KT P6SM BKN025
     FM251700 26010G18KT P6SM SCT045
     FM260000 27008KT P6SM BKN250
     FM260400 VRB03KT P6SM SCT250=

USA.gov is the U.S. government's official web portal to all federal, state and local government web resources and services.